Nearby METAR Reports

 

KLOT - Romeoville/Chi, Illinois, USA
Distance from station: N 3mi, 5km
Updated: Thu, 28-Jan-2021 5:15am CST
Clear
Clear
 Wind from NNE
Wind: NNE 3 mph , 6 km/h
Temperature: 9°F , -13°C
Dew Point: 3°F , -16°C
Humidity: 78%
Barometer: 30.57 inHg , 1035.2 hPa
Clouds: Clear
Visibility: 10 miles , 16 km
2021/01/28 11:15 KLOT 281115Z AUTO 03003KT 10SM CLR M13/M16 A3057 RMK AO2 T11331162
KJOT - Joliet, Illinois, USA
Distance from station: WSW 5mi, 7km
Updated: Thu, 28-Jan-2021 5:15am CST
Clear
Clear
 Wind from calm
Wind: Calm
Temperature: 10°F , -12°C
Dew Point: 5°F , -15°C
Humidity: 79%
Barometer: 30.59 inHg , 1035.9 hPa
Clouds: Clear
Visibility: 10 miles , 16 km
2021/01/28 11:15 KJOT 281115Z AUTO 00000KT 10SM CLR M12/M15 A3059 RMK AO2 T11171155
 
KC09 - Morris-Washburn, Illinois, USA
Distance from station: WSW 18mi, 29km
Updated: Thu, 28-Jan-2021 5:15am CST
Clear
Clear
 Wind from calm
Wind: Calm
Temperature: 9°F , -13°C
Dew Point: 1°F , -17°C
Humidity: 72%
Barometer: 30.59 inHg , 1035.9 hPa
Clouds: Clear
Visibility: 10 miles , 16 km
2021/01/28 11:15 KC09 281115Z AUTO 00000KT 10SM CLR M13/M17 A3059 RMK AO2 T11311166
KARR - Chicago/Aurora, Illinois, USA
Distance from station: NW 24mi, 39km
Updated: Thu, 28-Jan-2021 4:52am CST
Clear
Clear
 Wind from NW
Wind: NW 3 mph , 6 km/h
Temperature: 3°F , -16°C
Dew Point: -2°F , -19°C
Humidity: 78%
Barometer: 30.58 inHg , 1035.6 hPa
Clouds: Clear
Visibility: 10 miles , 16 km
2021/01/28 10:52 KARR 281052Z AUTO 31003KT 10SM CLR M16/M19 A3058 RMK AO2 SLP372 T11611194
 
KMDW - Chicago, Illinois, USA
Distance from station: NE 25mi, 39km
Updated: Thu, 28-Jan-2021 4:53am CST
Clear
Clear
 Wind from NW
Wind: NW 8 mph , 13 km/h
Temperature: 12°F , -11°C
Wind Chill: 0°F , -18°C
Dew Point: 3°F , -16°C
Humidity: 67%
Barometer: 30.60 inHg , 1036.2 hPa
Clouds: Clear
Visibility: 10 miles , 16 km
2021/01/28 10:53 KMDW 281053Z 31007KT 10SM CLR M11/M16 A3060 RMK AO2 SLP380 T11061161
KDPA - Chicago/Dupage, Illinois, USA
Distance from station: NNW 26mi, 42km
Updated: Thu, 28-Jan-2021 4:52am CST
Clear
Clear
 Wind from N
Wind: N 5 mph , 7 km/h
Temperature: 7°F , -14°C
Wind Chill: -2°F , -19°C
Dew Point: -0°F , -18°C
Humidity: 72%
Barometer: 30.57 inHg , 1035.2 hPa
Clouds: Clear
Visibility: 10 miles , 16 km
2021/01/28 10:52 KDPA 281052Z 35004KT 10SM CLR M14/M18 A3057 RMK AO2 SLP366 T11441178
 
KIGQ - Chicago/Lansing, Illinois, USA
Distance from station: E 30mi, 48km
Updated: Thu, 28-Jan-2021 5:15am CST
Clear
Clear
 Wind from NNW
Wind: NNW 6 mph , 9 km/h
Temperature: 14°F , -10°C
Wind Chill: 5°F , -15°C
Dew Point: 5°F , -15°C
Humidity: 67%
Barometer: 30.59 inHg , 1035.9 hPa
Clouds: Clear
Visibility: 10 miles , 16 km
2021/01/28 11:15 KIGQ 281115Z AUTO 33005KT 10SM CLR M10/M15 A3059 RMK AO2 T11021147
KORD - Chicago O'hare, Illinois, USA
Distance from station: NNE 31mi, 50km
Updated: Thu, 28-Jan-2021 4:51am CST
Clear
Clear
 Wind from NW
Wind: NW 6 mph , 9 km/h
Temperature: 10°F , -12°C
Wind Chill: 0°F , -18°C
Dew Point: 3°F , -16°C
Humidity: 72%
Barometer: 30.58 inHg , 1035.6 hPa
Clouds: Clear
Visibility: 10 miles , 16 km
2021/01/28 10:51 KORD 281051Z 32005KT 10SM CLR M12/M16 A3058 RMK AO2 SLP367 T11171161 $
 
KGYY - Gary Regional, Indiana, USA
Distance from station: E 36mi, 58km
Updated: Thu, 28-Jan-2021 4:45am CST
Clear
Clear
 Wind from WNW
Wind: WNW 8 mph , 13 km/h
Temperature: 16°F , -9°C
Wind Chill: 5°F , -15°C
Dew Point: 9°F , -13°C
Humidity: 73%
Barometer: 30.57 inHg , 1035.2 hPa
Clouds: Clear
Visibility: 10 miles , 16 km
2021/01/28 10:45 KGYY 281045Z 29007KT 10SM CLR M09/M13 A3057
KIKK - Kankakee, Illinois, USA
Distance from station: SSE 36mi, 58km
Updated: Thu, 28-Jan-2021 5:15am CST
Clear
Clear
 Wind from WNW
Wind: WNW 7 mph , 11 km/h
Temperature: 12°F , -11°C
Wind Chill: 1°F , -17°C
Dew Point: 7°F , -14°C
Humidity: 79%
Barometer: 30.61 inHg , 1036.6 hPa
Clouds: Clear
Visibility: 10 miles , 16 km
2021/01/28 11:15 KIKK 281115Z AUTO 30006KT 10SM CLR M11/M14 A3061 RMK AO2 T11071142
 
KDKB - De Kalb, Illinois, USA
Distance from station: NW 40mi, 65km
Updated: Thu, 28-Jan-2021 5:15am CST
Clear
Clear
 Wind from NW
Wind: NW 5 mph , 7 km/h
Temperature: 3°F , -16°C
Wind Chill: -7°F , -22°C
Dew Point: -0°F , -18°C
Humidity: 85%
Barometer: 30.58 inHg , 1035.6 hPa
Clouds: Clear
Visibility: 10 miles , 16 km
2021/01/28 11:15 KDKB 281115Z AUTO 32004KT 10SM CLR M16/M18 A3058 RMK AO2 T11581183
KPWK - Palwaukee, Illinois, USA
Distance from station: NNE 41mi, 65km
Updated: Thu, 28-Jan-2021 4:52am CST
Clear
Clear
 Wind from NNW
Wind: NNW 7 mph , 11 km/h
Temperature: 9°F , -13°C
Wind Chill: -2°F , -19°C
Dew Point: 1°F , -17°C
Humidity: 72%
Barometer: 30.60 inHg , 1036.2 hPa
Clouds: Clear
Visibility: 10 miles , 16 km
2021/01/28 10:52 KPWK 281052Z AUTO 33006KT 10SM CLR M13/M17 A3060 RMK AO2 SLP373 T11281172